sensor_id;sensor_type;location;lat;lon;timestamp;P1;P2;P0
77538;PMS7003;67783;51.656;16.106;2024-03-02T00:01:29;21;19;12
77538;PMS7003;67783;51.656;16.106;2024-03-02T00:04:30;20;16;12
77538;PMS7003;67783;51.656;16.106;2024-03-02T00:07:32;21;19;12
77538;PMS7003;67783;51.656;16.106;2024-03-02T00:10:59;20;17;7
77538;PMS7003;67783;51.656;16.106;2024-03-02T00:14:03;30;25;16
77538;PMS7003;67783;51.656;16.106;2024-03-02T00:17:09;29;26;16
77538;PMS7003;67783;51.656;16.106;2024-03-02T00:20:25;36;28;16
77538;PMS7003;67783;51.656;16.106;2024-03-02T00:23:30;29;24;16
77538;PMS7003;67783;51.656;16.106;2024-03-02T00:26:32;27;26;16
77538;PMS7003;67783;51.656;16.106;2024-03-02T00:29:34;29;26;13
77538;PMS7003;67783;51.656;16.106;2024-03-02T00:32:42;31;29;16
77538;PMS7003;67783;51.656;16.106;2024-03-02T00:35:49;35;31;19
77538;PMS7003;67783;51.656;16.106;2024-03-02T00:38:54;27;22;15
77538;PMS7003;67783;51.656;16.106;2024-03-02T00:42:00;30;25;17
77538;PMS7003;67783;51.656;16.106;2024-03-02T00:45:10;33;28;17
77538;PMS7003;67783;51.656;16.106;2024-03-02T00:48:18;36;28;18
77538;PMS7003;67783;51.656;16.106;2024-03-02T00:51:27;31;25;17
77538;PMS7003;67783;51.656;16.106;2024-03-02T00:54:37;26;24;17
77538;PMS7003;67783;51.656;16.106;2024-03-02T00:57:38;24;23;11
77538;PMS7003;67783;51.656;16.106;2024-03-02T01:00:47;28;27;17
77538;PMS7003;67783;51.656;16.106;2024-03-02T01:03:49;37;30;22
77538;PMS7003;67783;51.656;16.106;2024-03-02T01:06:53;30;27;19
77538;PMS7003;67783;51.656;16.106;2024-03-02T01:09:58;32;28;17
77538;PMS7003;67783;51.656;16.106;2024-03-02T01:13:07;33;28;16
77538;PMS7003;67783;51.656;16.106;2024-03-02T01:16:11;34;29;18
77538;PMS7003;67783;51.656;16.106;2024-03-02T01:19:14;35;29;17
77538;PMS7003;67783;51.656;16.106;2024-03-02T01:22:18;44;33;21
77538;PMS7003;67783;51.656;16.106;2024-03-02T01:25:29;35;28;18
77538;PMS7003;67783;51.656;16.106;2024-03-02T01:28:33;35;28;18
77538;PMS7003;67783;51.656;16.106;2024-03-02T01:31:40;30;26;18
77538;PMS7003;67783;51.656;16.106;2024-03-02T01:34:47;28;25;15
77538;PMS7003;67783;51.656;16.106;2024-03-02T01:37:55;39;31;19
77538;PMS7003;67783;51.656;16.106;2024-03-02T01:40:56;29;22;11
77538;PMS7003;67783;51.656;16.106;2024-03-02T01:44:01;37;30;19
77538;PMS7003;67783;51.656;16.106;2024-03-02T01:47:13;27;16;6
77538;PMS7003;67783;51.656;16.106;2024-03-02T01:50:15;38;30;21
77538;PMS7003;67783;51.656;16.106;2024-03-02T01:53:27;37;28;17
77538;PMS7003;67783;51.656;16.106;2024-03-02T01:56:31;37;31;19
77538;PMS7003;67783;51.656;16.106;2024-03-02T01:59:53;36;28;18
77538;PMS7003;67783;51.656;16.106;2024-03-02T02:02:58;32;26;18
77538;PMS7003;67783;51.656;16.106;2024-03-02T02:05:59;35;31;20
77538;PMS7003;67783;51.656;16.106;2024-03-02T02:09:08;35;30;21
77538;PMS7003;67783;51.656;16.106;2024-03-02T02:12:13;42;36;21
77538;PMS7003;67783;51.656;16.106;2024-03-02T02:18:35;44;35;20
77538;PMS7003;67783;51.656;16.106;2024-03-02T02:21:37;38;32;19
77538;PMS7003;67783;51.656;16.106;2024-03-02T02:24:44;41;32;22
77538;PMS7003;67783;51.656;16.106;2024-03-02T02:28:04;42;34;22
77538;PMS7003;67783;51.656;16.106;2024-03-02T02:31:12;44;35;22
77538;PMS7003;67783;51.656;16.106;2024-03-02T02:34:22;45;33;21
77538;PMS7003;67783;51.656;16.106;2024-03-02T02:37:29;33;28;20
77538;PMS7003;67783;51.656;16.106;2024-03-02T02:40:48;41;32;20
77538;PMS7003;67783;51.656;16.106;2024-03-02T02:43:51;46;36;22
77538;PMS7003;67783;51.656;16.106;2024-03-02T02:46:59;41;33;21
77538;PMS7003;67783;51.656;16.106;2024-03-02T02:50:01;41;34;21
77538;PMS7003;67783;51.656;16.106;2024-03-02T02:53:08;41;34;20
77538;PMS7003;67783;51.656;16.106;2024-03-02T02:56:23;43;34;19
77538;PMS7003;67783;51.656;16.106;2024-03-02T02:59:28;46;34;20
77538;PMS7003;67783;51.656;16.106;2024-03-02T03:02:32;40;32;20
77538;PMS7003;67783;51.656;16.106;2024-03-02T03:05:33;29;26;18
77538;PMS7003;67783;51.656;16.106;2024-03-02T03:08:40;41;34;20
77538;PMS7003;67783;51.656;16.106;2024-03-02T03:11:44;34;29;22
77538;PMS7003;67783;51.656;16.106;2024-03-02T03:14:46;41;35;21
77538;PMS7003;67783;51.656;16.106;2024-03-02T03:17:58;39;33;21
77538;PMS7003;67783;51.656;16.106;2024-03-02T03:21:13;41;30;19
77538;PMS7003;67783;51.656;16.106;2024-03-02T03:24:14;43;35;21
77538;PMS7003;67783;51.656;16.106;2024-03-02T03:27:16;47;34;20
77538;PMS7003;67783;51.656;16.106;2024-03-02T03:30:18;44;34;21
77538;PMS7003;67783;51.656;16.106;2024-03-02T03:33:28;41;34;22
77538;PMS7003;67783;51.656;16.106;2024-03-02T03:36:32;42;35;21
77538;PMS7003;67783;51.656;16.106;2024-03-02T03:39:41;45;36;22
77538;PMS7003;67783;51.656;16.106;2024-03-02T03:42:43;47;37;21
77538;PMS7003;67783;51.656;16.106;2024-03-02T03:45:47;32;23;6
77538;PMS7003;67783;51.656;16.106;2024-03-02T03:48:54;48;37;24
77538;PMS7003;67783;51.656;16.106;2024-03-02T03:51:57;45;34;22
77538;PMS7003;67783;51.656;16.106;2024-03-02T03:55:00;43;35;21
77538;PMS7003;67783;51.656;16.106;2024-03-02T03:58:02;47;36;22
77538;PMS7003;67783;51.656;16.106;2024-03-02T04:01:04;55;35;19
77538;PMS7003;67783;51.656;16.106;2024-03-02T04:04:05;43;33;21
77538;PMS7003;67783;51.656;16.106;2024-03-02T04:07:17;45;32;20
77538;PMS7003;67783;51.656;16.106;2024-03-02T04:10:18;46;33;21
77538;PMS7003;67783;51.656;16.106;2024-03-02T04:13:22;41;35;23
77538;PMS7003;67783;51.656;16.106;2024-03-02T04:16:26;46;37;24
77538;PMS7003;67783;51.656;16.106;2024-03-02T04:19:29;43;36;23
77538;PMS7003;67783;51.656;16.106;2024-03-02T04:22:41;40;30;19
77538;PMS7003;67783;51.656;16.106;2024-03-02T04:25:42;40;34;22
77538;PMS7003;67783;51.656;16.106;2024-03-02T04:28:46;45;36;24
77538;PMS7003;67783;51.656;16.106;2024-03-02T04:31:48;45;34;23
77538;PMS7003;67783;51.656;16.106;2024-03-02T04:34:56;39;32;20
77538;PMS7003;67783;51.656;16.106;2024-03-02T04:38:04;44;35;22
77538;PMS7003;67783;51.656;16.106;2024-03-02T04:41:06;44;34;24
77538;PMS7003;67783;51.656;16.106;2024-03-02T04:44:08;43;35;21
77538;PMS7003;67783;51.656;16.106;2024-03-02T04:47:09;42;29;18
77538;PMS7003;67783;51.656;16.106;2024-03-02T04:50:11;44;37;22
77538;PMS7003;67783;51.656;16.106;2024-03-02T04:53:21;41;32;20
77538;PMS7003;67783;51.656;16.106;2024-03-02T04:56:23;46;35;22
77538;PMS7003;67783;51.656;16.106;2024-03-02T04:59:38;43;32;20
77538;PMS7003;67783;51.656;16.106;2024-03-02T05:02:48;46;37;24
77538;PMS7003;67783;51.656;16.106;2024-03-02T05:05:50;40;33;21
77538;PMS7003;67783;51.656;16.106;2024-03-02T05:08:51;37;29;18
77538;PMS7003;67783;51.656;16.106;2024-03-02T05:11:53;42;33;20
77538;PMS7003;67783;51.656;16.106;2024-03-02T05:15:12;49;38;24
77538;PMS7003;67783;51.656;16.106;2024-03-02T05:18:16;49;35;19
77538;PMS7003;67783;51.656;16.106;2024-03-02T05:21:18;39;33;21
77538;PMS7003;67783;51.656;16.106;2024-03-02T05:24:21;47;34;22
77538;PMS7003;67783;51.656;16.106;2024-03-02T05:27:23;20;12;6
77538;PMS7003;67783;51.656;16.106;2024-03-02T05:30:29;39;33;21
77538;PMS7003;67783;51.656;16.106;2024-03-02T05:33:44;42;35;22
77538;PMS7003;67783;51.656;16.106;2024-03-02T05:36:50;41;33;20
77538;PMS7003;67783;51.656;16.106;2024-03-02T05:39:51;42;31;20
77538;PMS7003;67783;51.656;16.106;2024-03-02T05:42:52;41;33;23
77538;PMS7003;67783;51.656;16.106;2024-03-02T05:45:54;36;28;16
77538;PMS7003;67783;51.656;16.106;2024-03-02T05:48:59;40;34;21
77538;PMS7003;67783;51.656;16.106;2024-03-02T05:52:09;47;35;23
77538;PMS7003;67783;51.656;16.106;2024-03-02T05:55:13;48;37;21
77538;PMS7003;67783;51.656;16.106;2024-03-02T05:58:14;45;36;23
77538;PMS7003;67783;51.656;16.106;2024-03-02T06:01:28;53;35;22
77538;PMS7003;67783;51.656;16.106;2024-03-02T06:04:35;51;38;23
77538;PMS7003;67783;51.656;16.106;2024-03-02T06:07:39;45;36;23
77538;PMS7003;67783;51.656;16.106;2024-03-02T06:10:46;44;34;23
77538;PMS7003;67783;51.656;16.106;2024-03-02T06:13:59;51;33;22
77538;PMS7003;67783;51.656;16.106;2024-03-02T06:17:01;40;32;19
77538;PMS7003;67783;51.656;16.106;2024-03-02T06:20:03;27;23;8
77538;PMS7003;67783;51.656;16.106;2024-03-02T06:23:05;49;36;24
77538;PMS7003;67783;51.656;16.106;2024-03-02T06:26:15;45;35;24
77538;PMS7003;67783;51.656;16.106;2024-03-02T06:29:20;41;34;21
77538;PMS7003;67783;51.656;16.106;2024-03-02T06:32:22;39;34;23
77538;PMS7003;67783;51.656;16.106;2024-03-02T06:35:25;42;35;23
77538;PMS7003;67783;51.656;16.106;2024-03-02T06:38:27;51;40;26
77538;PMS7003;67783;51.656;16.106;2024-03-02T06:41:34;49;38;23
77538;PMS7003;67783;51.656;16.106;2024-03-02T06:44:41;35;29;21
77538;PMS7003;67783;51.656;16.106;2024-03-02T06:47:45;44;35;21
77538;PMS7003;67783;51.656;16.106;2024-03-02T06:50:47;39;31;21
77538;PMS7003;67783;51.656;16.106;2024-03-02T06:53:48;44;35;21
77538;PMS7003;67783;51.656;16.106;2024-03-02T06:56:50;38;32;20
77538;PMS7003;67783;51.656;16.106;2024-03-02T07:00:02;41;31;20
77538;PMS7003;67783;51.656;16.106;2024-03-02T07:03:09;43;33;19
77538;PMS7003;67783;51.656;16.106;2024-03-02T07:06:16;39;32;21
77538;PMS7003;67783;51.656;16.106;2024-03-02T07:09:32;42;34;20
77538;PMS7003;67783;51.656;16.106;2024-03-02T07:12:33;43;33;22
77538;PMS7003;67783;51.656;16.106;2024-03-02T07:15:38;39;33;19
77538;PMS7003;67783;51.656;16.106;2024-03-02T07:18:58;45;36;21
77538;PMS7003;67783;51.656;16.106;2024-03-02T07:22:05;40;31;20
77538;PMS7003;67783;51.656;16.106;2024-03-02T07:25:10;44;37;22
77538;PMS7003;67783;51.656;16.106;2024-03-02T07:28:22;36;27;16
77538;PMS7003;67783;51.656;16.106;2024-03-02T07:31:26;38;33;19
77538;PMS7003;67783;51.656;16.106;2024-03-02T07:34:32;36;31;19
77538;PMS7003;67783;51.656;16.106;2024-03-02T07:37:37;39;32;21
77538;PMS7003;67783;51.656;16.106;2024-03-02T07:40:38;43;33;21
77538;PMS7003;67783;51.656;16.106;2024-03-02T07:43:49;40;32;22
77538;PMS7003;67783;51.656;16.106;2024-03-02T07:46:53;39;33;22
77538;PMS7003;67783;51.656;16.106;2024-03-02T07:49:55;36;30;18
77538;PMS7003;67783;51.656;16.106;2024-03-02T07:52:59;47;36;23
77538;PMS7003;67783;51.656;16.106;2024-03-02T07:56:07;40;32;20
77538;PMS7003;67783;51.656;16.106;2024-03-02T07:59:12;40;33;22
77538;PMS7003;67783;51.656;16.106;2024-03-02T08:02:16;40;33;23
77538;PMS7003;67783;51.656;16.106;2024-03-02T08:05:23;40;33;22
77538;PMS7003;67783;51.656;16.106;2024-03-02T08:08:38;36;30;19
77538;PMS7003;67783;51.656;16.106;2024-03-02T08:11:43;43;36;22
77538;PMS7003;67783;51.656;16.106;2024-03-02T08:15:02;40;33;20
77538;PMS7003;67783;51.656;16.106;2024-03-02T08:18:09;40;33;22
77538;PMS7003;67783;51.656;16.106;2024-03-02T08:21:24;39;32;21
77538;PMS7003;67783;51.656;16.106;2024-03-02T08:24:28;38;32;21
77538;PMS7003;67783;51.656;16.106;2024-03-02T08:27:42;40;31;18
77538;PMS7003;67783;51.656;16.106;2024-03-02T08:30:45;46;35;23
77538;PMS7003;67783;51.656;16.106;2024-03-02T08:34:23;43;32;19
77538;PMS7003;67783;51.656;16.106;2024-03-02T08:37:17;35;29;18
77538;PMS7003;67783;51.656;16.106;2024-03-02T08:40:33;36;28;19
77538;PMS7003;67783;51.656;16.106;2024-03-02T08:43:50;39;29;17
77538;PMS7003;67783;51.656;16.106;2024-03-02T08:47:02;32;26;18
77538;PMS7003;67783;51.656;16.106;2024-03-02T08:50:18;41;32;21
77538;PMS7003;67783;51.656;16.106;2024-03-02T08:53:35;40;31;21
77538;PMS7003;67783;51.656;16.106;2024-03-02T08:56:52;35;28;16
77538;PMS7003;67783;51.656;16.106;2024-03-02T09:00:07;37;32;19
77538;PMS7003;67783;51.656;16.106;2024-03-02T09:06:47;33;29;17
77538;PMS7003;67783;51.656;16.106;2024-03-02T09:10:02;31;28;17
77538;PMS7003;67783;51.656;16.106;2024-03-02T09:13:20;37;28;18
77538;PMS7003;67783;51.656;16.106;2024-03-02T09:16:29;40;33;20
77538;PMS7003;67783;51.656;16.106;2024-03-02T09:26:22;36;30;17
77538;PMS7003;67783;51.656;16.106;2024-03-02T09:33:26;30;26;18
77538;PMS7003;67783;51.656;16.106;2024-03-02T09:39:29;27;24;17
77538;PMS7003;67783;51.656;16.106;2024-03-02T09:42:30;33;28;18
77538;PMS7003;67783;51.656;16.106;2024-03-02T09:45:33;34;27;18
77538;PMS7003;67783;51.656;16.106;2024-03-02T09:48:45;26;25;16
77538;PMS7003;67783;51.656;16.106;2024-03-02T09:51:47;24;20;13
77538;PMS7003;67783;51.656;16.106;2024-03-02T09:54:49;32;25;17
77538;PMS7003;67783;51.656;16.106;2024-03-02T09:57:51;25;23;17
77538;PMS7003;67783;51.656;16.106;2024-03-02T10:00:53;37;24;15
77538;PMS7003;67783;51.656;16.106;2024-03-02T10:04:03;28;25;14
77538;PMS7003;67783;51.656;16.106;2024-03-02T10:07:15;24;21;15
77538;PMS7003;67783;51.656;16.106;2024-03-02T10:10:16;29;25;16
77538;PMS7003;67783;51.656;16.106;2024-03-02T10:13:18;24;24;17
77538;PMS7003;67783;51.656;16.106;2024-03-02T10:16:19;36;23;16
77538;PMS7003;67783;51.656;16.106;2024-03-02T10:19:24;17;16;9
77538;PMS7003;67783;51.656;16.106;2024-03-02T10:22:27;24;21;13
77538;PMS7003;67783;51.656;16.106;2024-03-02T10:25:31;31;26;16
77538;PMS7003;67783;51.656;16.106;2024-03-02T10:28:34;25;22;14
77538;PMS7003;67783;51.656;16.106;2024-03-02T10:31:39;22;19;13
77538;PMS7003;67783;51.656;16.106;2024-03-02T10:34:45;25;18;12
77538;PMS7003;67783;51.656;16.106;2024-03-02T10:37:52;22;17;12
77538;PMS7003;67783;51.656;16.106;2024-03-02T10:40:54;21;20;12
77538;PMS7003;67783;51.656;16.106;2024-03-02T10:43:59;21;18;10
77538;PMS7003;67783;51.656;16.106;2024-03-02T10:47:04;23;17;11
77538;PMS7003;67783;51.656;16.106;2024-03-02T10:50:08;24;17;11
77538;PMS7003;67783;51.656;16.106;2024-03-02T10:53:10;24;21;13
77538;PMS7003;67783;51.656;16.106;2024-03-02T10:56:11;20;17;12
77538;PMS7003;67783;51.656;16.106;2024-03-02T10:59:35;22;18;10
77538;PMS7003;67783;51.656;16.106;2024-03-02T11:02:50;20;16;12
77538;PMS7003;67783;51.656;16.106;2024-03-02T11:05:51;19;16;11
77538;PMS7003;67783;51.656;16.106;2024-03-02T11:09:01;21;17;13
77538;PMS7003;67783;51.656;16.106;2024-03-02T11:12:11;17;13;8
77538;PMS7003;67783;51.656;16.106;2024-03-02T11:15:15;18;15;10
77538;PMS7003;67783;51.656;16.106;2024-03-02T11:18:27;21;20;10
77538;PMS7003;67783;51.656;16.106;2024-03-02T11:21:31;20;17;12
77538;PMS7003;67783;51.656;16.106;2024-03-02T11:24:36;15;14;9
77538;PMS7003;67783;51.656;16.106;2024-03-02T11:30:53;17;16;11
77538;PMS7003;67783;51.656;16.106;2024-03-02T11:34:00;16;14;9
77538;PMS7003;67783;51.656;16.106;2024-03-02T11:37:11;17;10;8
77538;PMS7003;67783;51.656;16.106;2024-03-02T11:40:13;23;19;12
77538;PMS7003;67783;51.656;16.106;2024-03-02T11:43:25;24;21;13
77538;PMS7003;67783;51.656;16.106;2024-03-02T11:46:29;28;21;14
77538;PMS7003;67783;51.656;16.106;2024-03-02T11:52:51;20;16;11
77538;PMS7003;67783;51.656;16.106;2024-03-02T11:55:53;22;19;12
77538;PMS7003;67783;51.656;16.106;2024-03-02T11:58:56;23;20;13
77538;PMS7003;67783;51.656;16.106;2024-03-02T12:01:59;25;20;14
77538;PMS7003;67783;51.656;16.106;2024-03-02T12:05:02;19;17;11
77538;PMS7003;67783;51.656;16.106;2024-03-02T12:08:12;22;17;13
77538;PMS7003;67783;51.656;16.106;2024-03-02T12:11:13;25;20;13
77538;PMS7003;67783;51.656;16.106;2024-03-02T12:14:16;26;20;12
77538;PMS7003;67783;51.656;16.106;2024-03-02T12:17:17;17;17;12
77538;PMS7003;67783;51.656;16.106;2024-03-02T12:20:19;15;15;10
77538;PMS7003;67783;51.656;16.106;2024-03-02T12:23:21;17;16;10
77538;PMS7003;67783;51.656;16.106;2024-03-02T12:26:23;18;18;10
77538;PMS7003;67783;51.656;16.106;2024-03-02T12:29:28;22;17;11
77538;PMS7003;67783;51.656;16.106;2024-03-02T12:32:29;20;16;12
77538;PMS7003;67783;51.656;16.106;2024-03-02T12:35:31;24;20;13
77538;PMS7003;67783;51.656;16.106;2024-03-02T12:38:32;21;19;12
77538;PMS7003;67783;51.656;16.106;2024-03-02T12:41:35;19;15;10
77538;PMS7003;67783;51.656;16.106;2024-03-02T12:44:48;24;21;13
77538;PMS7003;67783;51.656;16.106;2024-03-02T12:47:50;17;15;8
77538;PMS7003;67783;51.656;16.106;2024-03-02T12:50:54;16;15;11
77538;PMS7003;67783;51.656;16.106;2024-03-02T12:55:44;20;17;9
77538;PMS7003;67783;51.656;16.106;2024-03-02T12:58:46;20;19;13
77538;PMS7003;67783;51.656;16.106;2024-03-02T13:01:51;19;18;10
77538;PMS7003;67783;51.656;16.106;2024-03-02T13:04:53;16;14;9
77538;PMS7003;67783;51.656;16.106;2024-03-02T13:08:06;17;15;11
77538;PMS7003;67783;51.656;16.106;2024-03-02T13:11:08;16;16;10
77538;PMS7003;67783;51.656;16.106;2024-03-02T13:14:10;17;15;8
77538;PMS7003;67783;51.656;16.106;2024-03-02T13:17:12;18;16;10
77538;PMS7003;67783;51.656;16.106;2024-03-02T13:20:15;17;15;11
77538;PMS7003;67783;51.656;16.106;2024-03-02T13:23:25;15;15;10
77538;PMS7003;67783;51.656;16.106;2024-03-02T13:26:27;13;12;9
77538;PMS7003;67783;51.656;16.106;2024-03-02T13:29:28;17;14;9
77538;PMS7003;67783;51.656;16.106;2024-03-02T13:32:30;17;13;9
77538;PMS7003;67783;51.656;16.106;2024-03-02T13:35:31;17;16;11
77538;PMS7003;67783;51.656;16.106;2024-03-02T13:38:33;13;13;9
77538;PMS7003;67783;51.656;16.106;2024-03-02T13:41:34;12;12;10
77538;PMS7003;67783;51.656;16.106;2024-03-02T13:44:40;11;11;8
77538;PMS7003;67783;51.656;16.106;2024-03-02T13:47:48;18;12;8
77538;PMS7003;67783;51.656;16.106;2024-03-02T13:50:49;15;15;11
77538;PMS7003;67783;51.656;16.106;2024-03-02T13:53:51;12;12;9
77538;PMS7003;67783;51.656;16.106;2024-03-02T13:56:52;16;14;9
77538;PMS7003;67783;51.656;16.106;2024-03-02T14:00:00;17;15;7
77538;PMS7003;67783;51.656;16.106;2024-03-02T14:03:04;16;12;9
77538;PMS7003;67783;51.656;16.106;2024-03-02T14:06:07;17;14;10
77538;PMS7003;67783;51.656;16.106;2024-03-02T14:09:08;20;17;12
77538;PMS7003;67783;51.656;16.106;2024-03-02T14:12:10;14;14;10
77538;PMS7003;67783;51.656;16.106;2024-03-02T14:15:22;19;18;12
77538;PMS7003;67783;51.656;16.106;2024-03-02T14:18:25;17;15;10
77538;PMS7003;67783;51.656;16.106;2024-03-02T14:21:26;14;12;9
77538;PMS7003;67783;51.656;16.106;2024-03-02T14:24:28;19;15;10
77538;PMS7003;67783;51.656;16.106;2024-03-02T14:27:30;16;15;11
77538;PMS7003;67783;51.656;16.106;2024-03-02T14:30:42;16;14;10
77538;PMS7003;67783;51.656;16.106;2024-03-02T14:33:43;15;14;11
77538;PMS7003;67783;51.656;16.106;2024-03-02T14:36:44;19;18;9
77538;PMS7003;67783;51.656;16.106;2024-03-02T14:39:46;18;18;12
77538;PMS7003;67783;51.656;16.106;2024-03-02T14:42:47;19;14;10
77538;PMS7003;67783;51.656;16.106;2024-03-02T14:45:49;16;14;9
77538;PMS7003;67783;51.656;16.106;2024-03-02T14:48:51;15;14;9
77538;PMS7003;67783;51.656;16.106;2024-03-02T14:51:56;16;15;10
77538;PMS7003;67783;51.656;16.106;2024-03-02T14:54:58;17;14;10
77538;PMS7003;67783;51.656;16.106;2024-03-02T14:57:59;18;15;11
77538;PMS7003;67783;51.656;16.106;2024-03-02T15:01:01;17;15;8
77538;PMS7003;67783;51.656;16.106;2024-03-02T15:04:04;15;14;10
77538;PMS7003;67783;51.656;16.106;2024-03-02T15:07:06;17;17;11
77538;PMS7003;67783;51.656;16.106;2024-03-02T15:10:07;19;16;10
77538;PMS7003;67783;51.656;16.106;2024-03-02T15:13:12;21;15;10
77538;PMS7003;67783;51.656;16.106;2024-03-02T15:16:13;15;13;10
77538;PMS7003;67783;51.656;16.106;2024-03-02T15:19:15;18;15;9
77538;PMS7003;67783;51.656;16.106;2024-03-02T15:22:17;22;15;11
77538;PMS7003;67783;51.656;16.106;2024-03-02T15:25:18;21;17;11
77538;PMS7003;67783;51.656;16.106;2024-03-02T15:28:19;25;21;13
77538;PMS7003;67783;51.656;16.106;2024-03-02T15:31:21;22;21;12
77538;PMS7003;67783;51.656;16.106;2024-03-02T15:34:26;17;16;12
77538;PMS7003;67783;51.656;16.106;2024-03-02T15:37:28;25;24;16
77538;PMS7003;67783;51.656;16.106;2024-03-02T15:40:29;31;23;15
77538;PMS7003;67783;51.656;16.106;2024-03-02T15:43:31;23;20;14
77538;PMS7003;67783;51.656;16.106;2024-03-02T15:46:33;21;21;14
77538;PMS7003;67783;51.656;16.106;2024-03-02T15:49:35;24;20;14
77538;PMS7003;67783;51.656;16.106;2024-03-02T15:52:37;18;16;12
77538;PMS7003;67783;51.656;16.106;2024-03-02T15:55:42;30;26;15
77538;PMS7003;67783;51.656;16.106;2024-03-02T15:58:43;22;21;12
77538;PMS7003;67783;51.656;16.106;2024-03-02T16:01:46;28;27;18
77538;PMS7003;67783;51.656;16.106;2024-03-02T16:04:48;27;25;16
77538;PMS7003;67783;51.656;16.106;2024-03-02T16:07:49;20;19;12
77538;PMS7003;67783;51.656;16.106;2024-03-02T16:10:51;22;20;14
77538;PMS7003;67783;51.656;16.106;2024-03-02T16:13:53;15;15;11
77538;PMS7003;67783;51.656;16.106;2024-03-02T16:16:58;24;20;11
77538;PMS7003;67783;51.656;16.106;2024-03-02T16:20:00;24;21;13
77538;PMS7003;67783;51.656;16.106;2024-03-02T16:23:01;22;21;14
77538;PMS7003;67783;51.656;16.106;2024-03-02T16:26:03;18;18;11
77538;PMS7003;67783;51.656;16.106;2024-03-02T16:29:04;15;15;9
77538;PMS7003;67783;51.656;16.106;2024-03-02T16:32:06;18;16;12
77538;PMS7003;67783;51.656;16.106;2024-03-02T16:35:08;15;15;9
77538;PMS7003;67783;51.656;16.106;2024-03-02T16:38:13;23;21;13
77538;PMS7003;67783;51.656;16.106;2024-03-02T16:41:15;20;19;15
77538;PMS7003;67783;51.656;16.106;2024-03-02T16:44:19;19;18;13
77538;PMS7003;67783;51.656;16.106;2024-03-02T16:47:24;22;22;15
77538;PMS7003;67783;51.656;16.106;2024-03-02T16:50:28;21;20;12
77538;PMS7003;67783;51.656;16.106;2024-03-02T16:53:34;27;23;15
77538;PMS7003;67783;51.656;16.106;2024-03-02T16:56:39;21;18;13
77538;PMS7003;67783;51.656;16.106;2024-03-02T16:59:45;26;22;15
77538;PMS7003;67783;51.656;16.106;2024-03-02T17:02:47;26;18;11
77538;PMS7003;67783;51.656;16.106;2024-03-02T17:05:49;28;25;16
77538;PMS7003;67783;51.656;16.106;2024-03-02T17:08:54;26;25;17
77538;PMS7003;67783;51.656;16.106;2024-03-02T17:11:56;26;23;14
77538;PMS7003;67783;51.656;16.106;2024-03-02T17:14:57;40;31;21
77538;PMS7003;67783;51.656;16.106;2024-03-02T17:17:59;38;31;19
77538;PMS7003;67783;51.656;16.106;2024-03-02T17:21:00;36;30;20
77538;PMS7003;67783;51.656;16.106;2024-03-02T17:24:02;33;29;18
77538;PMS7003;67783;51.656;16.106;2024-03-02T17:27:04;36;27;17
77538;PMS7003;67783;51.656;16.106;2024-03-02T17:30:10;38;31;17
77538;PMS7003;67783;51.656;16.106;2024-03-02T17:33:13;31;27;17
77538;PMS7003;67783;51.656;16.106;2024-03-02T17:36:14;39;29;17
77538;PMS7003;67783;51.656;16.106;2024-03-02T17:39:16;33;27;18
77538;PMS7003;67783;51.656;16.106;2024-03-02T17:42:17;32;25;16
77538;PMS7003;67783;51.656;16.106;2024-03-02T17:45:18;27;21;13
77538;PMS7003;67783;51.656;16.106;2024-03-02T17:48:20;29;26;17
77538;PMS7003;67783;51.656;16.106;2024-03-02T17:51:25;28;24;15
77538;PMS7003;67783;51.656;16.106;2024-03-02T17:54:26;31;27;17
77538;PMS7003;67783;51.656;16.106;2024-03-02T17:57:28;23;22;15
77538;PMS7003;67783;51.656;16.106;2024-03-02T18:00:29;32;27;18
77538;PMS7003;67783;51.656;16.106;2024-03-02T18:03:31;29;24;16
77538;PMS7003;67783;51.656;16.106;2024-03-02T18:06:33;29;25;16
77538;PMS7003;67783;51.656;16.106;2024-03-02T18:09:34;27;25;18
77538;PMS7003;67783;51.656;16.106;2024-03-02T18:12:39;29;23;16
77538;PMS7003;67783;51.656;16.106;2024-03-02T18:15:41;27;24;17
77538;PMS7003;67783;51.656;16.106;2024-03-02T18:18:45;33;24;17
77538;PMS7003;67783;51.656;16.106;2024-03-02T18:21:49;32;29;19
77538;PMS7003;67783;51.656;16.106;2024-03-02T18:24:50;19;19;14
77538;PMS7003;67783;51.656;16.106;2024-03-02T18:28:00;20;20;13
77538;PMS7003;67783;51.656;16.106;2024-03-02T18:31:02;21;21;14
77538;PMS7003;67783;51.656;16.106;2024-03-02T18:34:04;23;22;16
77538;PMS7003;67783;51.656;16.106;2024-03-02T18:37:07;21;16;9
77538;PMS7003;67783;51.656;16.106;2024-03-02T18:40:08;15;13;6
77538;PMS7003;67783;51.656;16.106;2024-03-02T18:43:21;25;19;14
77538;PMS7003;67783;51.656;16.106;2024-03-02T18:46:23;32;23;15
77538;PMS7003;67783;51.656;16.106;2024-03-02T18:49:24;23;21;13
77538;PMS7003;67783;51.656;16.106;2024-03-02T18:52:26;25;21;15
77538;PMS7003;67783;51.656;16.106;2024-03-02T18:55:28;23;19;13
77538;PMS7003;67783;51.656;16.106;2024-03-02T18:58:30;21;21;14
77538;PMS7003;67783;51.656;16.106;2024-03-02T19:01:32;15;15;10
77538;PMS7003;67783;51.656;16.106;2024-03-02T19:04:37;27;24;16
77538;PMS7003;67783;51.656;16.106;2024-03-02T19:07:38;20;19;13
77538;PMS7003;67783;51.656;16.106;2024-03-02T19:10:40;21;18;13
77538;PMS7003;67783;51.656;16.106;2024-03-02T19:13:41;22;19;13
77538;PMS7003;67783;51.656;16.106;2024-03-02T19:16:45;23;19;12
77538;PMS7003;67783;51.656;16.106;2024-03-02T19:19:46;25;22;13
77538;PMS7003;67783;51.656;16.106;2024-03-02T19:22:48;24;18;13
77538;PMS7003;67783;51.656;16.106;2024-03-02T19:25:52;27;22;13
77538;PMS7003;67783;51.656;16.106;2024-03-02T19:28:55;25;23;16
77538;PMS7003;67783;51.656;16.106;2024-03-02T19:31:56;26;24;15
77538;PMS7003;67783;51.656;16.106;2024-03-02T19:34:58;21;21;14
77538;PMS7003;67783;51.656;16.106;2024-03-02T19:38:00;28;26;17
77538;PMS7003;67783;51.656;16.106;2024-03-02T19:41:02;28;25;15
77538;PMS7003;67783;51.656;16.106;2024-03-02T19:44:05;27;22;17
77538;PMS7003;67783;51.656;16.106;2024-03-02T19:47:10;28;22;15
77538;PMS7003;67783;51.656;16.106;2024-03-02T19:50:14;33;27;17
77538;PMS7003;67783;51.656;16.106;2024-03-02T19:53:18;32;27;16
77538;PMS7003;67783;51.656;16.106;2024-03-02T19:56:20;34;26;16
77538;PMS7003;67783;51.656;16.106;2024-03-02T19:59:21;21;20;10